sensor_id;sensor_type;location;lat;lon;timestamp;P1;durP1;ratioP1;P2;durP2;ratioP2
73661;SDS011;61956;52.540;13.382;2022-12-18T00:01:38;4.28;;;2.13;;
73661;SDS011;61956;52.540;13.382;2022-12-18T00:04:14;5.40;;;1.67;;
73661;SDS011;61956;52.540;13.382;2022-12-18T00:06:48;2.47;;;1.37;;
73661;SDS011;61956;52.540;13.382;2022-12-18T00:09:20;4.97;;;2.25;;
73661;SDS011;61956;52.540;13.382;2022-12-18T00:11:50;2.47;;;1.63;;
73661;SDS011;61956;52.540;13.382;2022-12-18T00:14:19;5.47;;;3.05;;
73661;SDS011;61956;52.540;13.382;2022-12-18T00:16:48;4.30;;;2.42;;
73661;SDS011;61956;52.540;13.382;2022-12-18T00:19:17;7.43;;;5.17;;
73661;SDS011;61956;52.540;13.382;2022-12-18T00:21:46;10.27;;;6.57;;
73661;SDS011;61956;52.540;13.382;2022-12-18T00:24:15;12.23;;;6.40;;
73661;SDS011;61956;52.540;13.382;2022-12-18T00:26:47;10.75;;;5.20;;
73661;SDS011;61956;52.540;13.382;2022-12-18T00:29:16;3.95;;;2.00;;
73661;SDS011;61956;52.540;13.382;2022-12-18T00:31:46;13.70;;;4.03;;
73661;SDS011;61956;52.540;13.382;2022-12-18T00:34:15;6.95;;;3.42;;
73661;SDS011;61956;52.540;13.382;2022-12-18T00:36:47;11.43;;;3.42;;
73661;SDS011;61956;52.540;13.382;2022-12-18T00:39:16;9.02;;;3.80;;
73661;SDS011;61956;52.540;13.382;2022-12-18T00:41:48;22.00;;;6.30;;
73661;SDS011;61956;52.540;13.382;2022-12-18T00:44:30;3.20;;;1.83;;
73661;SDS011;61956;52.540;13.382;2022-12-18T00:46:59;8.70;;;3.42;;
73661;SDS011;61956;52.540;13.382;2022-12-18T00:49:29;4.38;;;2.53;;
73661;SDS011;61956;52.540;13.382;2022-12-18T00:51:58;2.47;;;2.08;;
73661;SDS011;61956;52.540;13.382;2022-12-18T00:54:27;3.72;;;1.80;;
73661;SDS011;61956;52.540;13.382;2022-12-18T00:56:59;6.10;;;2.90;;
73661;SDS011;61956;52.540;13.382;2022-12-18T00:59:28;2.97;;;1.60;;
73661;SDS011;61956;52.540;13.382;2022-12-18T01:01:57;6.03;;;3.92;;
73661;SDS011;61956;52.540;13.382;2022-12-18T01:04:26;5.82;;;2.83;;
73661;SDS011;61956;52.540;13.382;2022-12-18T01:06:56;6.03;;;2.72;;
73661;SDS011;61956;52.540;13.382;2022-12-18T01:09:26;5.83;;;1.93;;
73661;SDS011;61956;52.540;13.382;2022-12-18T01:11:55;7.40;;;4.65;;
73661;SDS011;61956;52.540;13.382;2022-12-18T01:14:27;8.43;;;3.22;;
73661;SDS011;61956;52.540;13.382;2022-12-18T01:16:56;9.73;;;5.38;;
73661;SDS011;61956;52.540;13.382;2022-12-18T01:19:27;3.78;;;1.40;;
73661;SDS011;61956;52.540;13.382;2022-12-18T01:21:56;7.30;;;3.20;;
73661;SDS011;61956;52.540;13.382;2022-12-18T01:24:26;9.95;;;3.97;;
73661;SDS011;61956;52.540;13.382;2022-12-18T01:26:56;6.65;;;2.53;;
73661;SDS011;61956;52.540;13.382;2022-12-18T01:29:28;4.03;;;1.83;;
73661;SDS011;61956;52.540;13.382;2022-12-18T01:31:58;9.00;;;2.97;;
73661;SDS011;61956;52.540;13.382;2022-12-18T01:34:29;10.77;;;2.87;;
73661;SDS011;61956;52.540;13.382;2022-12-18T01:37:02;11.68;;;4.30;;
73661;SDS011;61956;52.540;13.382;2022-12-18T01:39:33;6.95;;;4.38;;
73661;SDS011;61956;52.540;13.382;2022-12-18T01:42:08;7.78;;;4.40;;
73661;SDS011;61956;52.540;13.382;2022-12-18T01:44:59;3.13;;;1.65;;
73661;SDS011;61956;52.540;13.382;2022-12-18T01:47:34;13.07;;;4.17;;
73661;SDS011;61956;52.540;13.382;2022-12-18T01:50:10;3.75;;;2.65;;
73661;SDS011;61956;52.540;13.382;2022-12-18T01:52:46;8.10;;;2.90;;
73661;SDS011;61956;52.540;13.382;2022-12-18T01:55:19;5.25;;;1.73;;
73661;SDS011;61956;52.540;13.382;2022-12-18T01:57:54;7.95;;;1.40;;
73661;SDS011;61956;52.540;13.382;2022-12-18T02:00:28;1.63;;;0.63;;
73661;SDS011;61956;52.540;13.382;2022-12-18T02:02:58;3.03;;;2.20;;
73661;SDS011;61956;52.540;13.382;2022-12-18T02:05:31;5.50;;;2.47;;
73661;SDS011;61956;52.540;13.382;2022-12-18T02:08:13;14.18;;;5.47;;
73661;SDS011;61956;52.540;13.382;2022-12-18T02:10:52;4.40;;;1.88;;
73661;SDS011;61956;52.540;13.382;2022-12-18T02:13:32;6.03;;;2.93;;
73661;SDS011;61956;52.540;13.382;2022-12-18T02:16:19;11.38;;;5.00;;
73661;SDS011;61956;52.540;13.382;2022-12-18T02:18:59;4.75;;;3.90;;
73661;SDS011;61956;52.540;13.382;2022-12-18T02:21:36;9.05;;;2.92;;
73661;SDS011;61956;52.540;13.382;2022-12-18T02:24:24;18.00;;;4.28;;
73661;SDS011;61956;52.540;13.382;2022-12-18T02:27:06;5.20;;;2.93;;
73661;SDS011;61956;52.540;13.382;2022-12-18T02:29:39;2.60;;;1.48;;
73661;SDS011;61956;52.540;13.382;2022-12-18T02:32:18;8.73;;;2.15;;
73661;SDS011;61956;52.540;13.382;2022-12-18T02:34:53;13.88;;;5.85;;
73661;SDS011;61956;52.540;13.382;2022-12-18T02:37:27;20.98;;;4.90;;
73661;SDS011;61956;52.540;13.382;2022-12-18T02:40:01;18.93;;;4.93;;
73661;SDS011;61956;52.540;13.382;2022-12-18T02:42:38;14.00;;;4.85;;
73661;SDS011;61956;52.540;13.382;2022-12-18T02:45:09;7.70;;;3.97;;
73661;SDS011;61956;52.540;13.382;2022-12-18T02:47:40;8.07;;;2.85;;
73661;SDS011;61956;52.540;13.382;2022-12-18T02:50:14;12.38;;;3.95;;
73661;SDS011;61956;52.540;13.382;2022-12-18T02:52:59;7.57;;;3.83;;
73661;SDS011;61956;52.540;13.382;2022-12-18T02:55:42;14.57;;;4.47;;
73661;SDS011;61956;52.540;13.382;2022-12-18T02:58:30;5.88;;;4.15;;
73661;SDS011;61956;52.540;13.382;2022-12-18T03:01:21;5.95;;;2.40;;
73661;SDS011;61956;52.540;13.382;2022-12-18T03:04:03;16.50;;;4.30;;
73661;SDS011;61956;52.540;13.382;2022-12-18T03:06:40;5.03;;;2.57;;
73661;SDS011;61956;52.540;13.382;2022-12-18T03:09:17;14.32;;;4.10;;
73661;SDS011;61956;52.540;13.382;2022-12-18T03:12:00;3.70;;;2.85;;
73661;SDS011;61956;52.540;13.382;2022-12-18T03:14:59;7.38;;;2.78;;
73661;SDS011;61956;52.540;13.382;2022-12-18T03:17:36;2.38;;;1.55;;
73661;SDS011;61956;52.540;13.382;2022-12-18T03:20:12;10.17;;;3.40;;
73661;SDS011;61956;52.540;13.382;2022-12-18T03:22:47;11.57;;;5.05;;
73661;SDS011;61956;52.540;13.382;2022-12-18T03:25:22;4.00;;;2.20;;
73661;SDS011;61956;52.540;13.382;2022-12-18T03:27:55;8.68;;;3.17;;
73661;SDS011;61956;52.540;13.382;2022-12-18T03:30:32;10.80;;;4.13;;
73661;SDS011;61956;52.540;13.382;2022-12-18T03:33:08;18.60;;;3.50;;
73661;SDS011;61956;52.540;13.382;2022-12-18T03:35:45;4.90;;;3.17;;
73661;SDS011;61956;52.540;13.382;2022-12-18T03:38:16;4.25;;;3.15;;
73661;SDS011;61956;52.540;13.382;2022-12-18T03:40:50;14.18;;;3.65;;
73661;SDS011;61956;52.540;13.382;2022-12-18T03:43:40;6.55;;;2.95;;
73661;SDS011;61956;52.540;13.382;2022-12-18T03:46:24;5.87;;;2.80;;
73661;SDS011;61956;52.540;13.382;2022-12-18T03:48:59;20.42;;;4.43;;
73661;SDS011;61956;52.540;13.382;2022-12-18T03:51:42;6.35;;;2.80;;
73661;SDS011;61956;52.540;13.382;2022-12-18T03:54:21;13.73;;;4.65;;
73661;SDS011;61956;52.540;13.382;2022-12-18T03:57:01;7.63;;;1.45;;
73661;SDS011;61956;52.540;13.382;2022-12-18T03:59:38;11.93;;;3.63;;
73661;SDS011;61956;52.540;13.382;2022-12-18T04:02:12;13.18;;;3.75;;
73661;SDS011;61956;52.540;13.382;2022-12-18T04:04:45;6.45;;;4.18;;
73661;SDS011;61956;52.540;13.382;2022-12-18T04:07:20;8.30;;;4.00;;
73661;SDS011;61956;52.540;13.382;2022-12-18T04:09:51;3.63;;;1.80;;
73661;SDS011;61956;52.540;13.382;2022-12-18T04:12:28;10.23;;;3.73;;
73661;SDS011;61956;52.540;13.382;2022-12-18T04:14:58;5.70;;;3.78;;
73661;SDS011;61956;52.540;13.382;2022-12-18T04:17:31;10.93;;;4.07;;
73661;SDS011;61956;52.540;13.382;2022-12-18T04:20:00;6.07;;;3.20;;
73661;SDS011;61956;52.540;13.382;2022-12-18T04:22:30;5.25;;;3.85;;
73661;SDS011;61956;52.540;13.382;2022-12-18T04:24:59;2.47;;;1.43;;
73661;SDS011;61956;52.540;13.382;2022-12-18T04:27:36;5.05;;;3.13;;
73661;SDS011;61956;52.540;13.382;2022-12-18T04:30:06;8.13;;;2.88;;
73661;SDS011;61956;52.540;13.382;2022-12-18T04:32:39;5.72;;;3.35;;
73661;SDS011;61956;52.540;13.382;2022-12-18T04:35:09;7.25;;;3.53;;
73661;SDS011;61956;52.540;13.382;2022-12-18T04:37:41;7.07;;;3.27;;
73661;SDS011;61956;52.540;13.382;2022-12-18T04:40:11;12.55;;;3.90;;
73661;SDS011;61956;52.540;13.382;2022-12-18T04:42:44;2.45;;;1.67;;
73661;SDS011;61956;52.540;13.382;2022-12-18T04:45:13;7.03;;;2.55;;
73661;SDS011;61956;52.540;13.382;2022-12-18T04:47:45;5.93;;;1.75;;
73661;SDS011;61956;52.540;13.382;2022-12-18T04:50:14;8.87;;;2.73;;
73661;SDS011;61956;52.540;13.382;2022-12-18T04:52:44;3.53;;;2.25;;
73661;SDS011;61956;52.540;13.382;2022-12-18T04:55:13;3.05;;;1.80;;
73661;SDS011;61956;52.540;13.382;2022-12-18T04:57:42;6.13;;;2.80;;
73661;SDS011;61956;52.540;13.382;2022-12-18T05:00:12;7.88;;;3.10;;
73661;SDS011;61956;52.540;13.382;2022-12-18T05:02:45;3.90;;;1.63;;
73661;SDS011;61956;52.540;13.382;2022-12-18T05:05:14;4.93;;;1.77;;
73661;SDS011;61956;52.540;13.382;2022-12-18T05:07:43;8.30;;;3.10;;
73661;SDS011;61956;52.540;13.382;2022-12-18T05:10:12;1.75;;;1.33;;
73661;SDS011;61956;52.540;13.382;2022-12-18T05:12:42;6.00;;;2.45;;
73661;SDS011;61956;52.540;13.382;2022-12-18T05:15:26;9.90;;;4.30;;
73661;SDS011;61956;52.540;13.382;2022-12-18T05:18:00;5.35;;;1.85;;
73661;SDS011;61956;52.540;13.382;2022-12-18T05:20:30;3.22;;;1.95;;
73661;SDS011;61956;52.540;13.382;2022-12-18T05:22:59;1.60;;;1.27;;
73661;SDS011;61956;52.540;13.382;2022-12-18T05:25:28;3.22;;;2.22;;
73661;SDS011;61956;52.540;13.382;2022-12-18T05:27:57;3.43;;;1.23;;
73661;SDS011;61956;52.540;13.382;2022-12-18T05:30:27;7.07;;;2.65;;
73661;SDS011;61956;52.540;13.382;2022-12-18T05:32:56;2.28;;;2.05;;
73661;SDS011;61956;52.540;13.382;2022-12-18T05:35:28;3.35;;;1.08;;
73661;SDS011;61956;52.540;13.382;2022-12-18T05:37:57;5.07;;;2.47;;
73661;SDS011;61956;52.540;13.382;2022-12-18T05:40:26;2.47;;;0.57;;
73661;SDS011;61956;52.540;13.382;2022-12-18T05:42:55;7.38;;;3.03;;
73661;SDS011;61956;52.540;13.382;2022-12-18T05:45:24;6.97;;;3.53;;
73661;SDS011;61956;52.540;13.382;2022-12-18T05:47:53;0.82;;;0.60;;
73661;SDS011;61956;52.540;13.382;2022-12-18T05:50:22;3.08;;;2.28;;
73661;SDS011;61956;52.540;13.382;2022-12-18T05:52:54;6.10;;;2.50;;
73661;SDS011;61956;52.540;13.382;2022-12-18T05:55:23;2.85;;;1.20;;
73661;SDS011;61956;52.540;13.382;2022-12-18T05:57:52;4.63;;;1.80;;
73661;SDS011;61956;52.540;13.382;2022-12-18T06:00:21;2.72;;;2.22;;
73661;SDS011;61956;52.540;13.382;2022-12-18T06:02:50;4.35;;;3.42;;
73661;SDS011;61956;52.540;13.382;2022-12-18T06:05:19;4.90;;;2.70;;
73661;SDS011;61956;52.540;13.382;2022-12-18T06:07:48;2.70;;;1.45;;
73661;SDS011;61956;52.540;13.382;2022-12-18T06:10:20;7.30;;;3.33;;
73661;SDS011;61956;52.540;13.382;2022-12-18T06:12:49;5.55;;;2.80;;
73661;SDS011;61956;52.540;13.382;2022-12-18T06:15:18;5.05;;;1.92;;
73661;SDS011;61956;52.540;13.382;2022-12-18T06:17:47;6.73;;;2.43;;
73661;SDS011;61956;52.540;13.382;2022-12-18T06:20:16;8.93;;;5.07;;
73661;SDS011;61956;52.540;13.382;2022-12-18T06:22:45;14.15;;;2.90;;
73661;SDS011;61956;52.540;13.382;2022-12-18T06:25:15;7.72;;;1.48;;
73661;SDS011;61956;52.540;13.382;2022-12-18T06:27:47;4.45;;;2.78;;
73661;SDS011;61956;52.540;13.382;2022-12-18T06:30:16;3.77;;;2.80;;
73661;SDS011;61956;52.540;13.382;2022-12-18T06:32:45;3.88;;;1.70;;
73661;SDS011;61956;52.540;13.382;2022-12-18T06:35:16;10.63;;;4.28;;
73661;SDS011;61956;52.540;13.382;2022-12-18T06:37:45;5.45;;;3.70;;
73661;SDS011;61956;52.540;13.382;2022-12-18T06:40:14;3.78;;;2.10;;
73661;SDS011;61956;52.540;13.382;2022-12-18T06:42:46;10.27;;;2.80;;
73661;SDS011;61956;52.540;13.382;2022-12-18T06:45:16;2.53;;;0.98;;
73661;SDS011;61956;52.540;13.382;2022-12-18T06:47:45;11.50;;;2.70;;
73661;SDS011;61956;52.540;13.382;2022-12-18T06:50:14;1.35;;;0.95;;
73661;SDS011;61956;52.540;13.382;2022-12-18T06:52:43;5.68;;;3.50;;
73661;SDS011;61956;52.540;13.382;2022-12-18T06:55:12;7.03;;;3.87;;
73661;SDS011;61956;52.540;13.382;2022-12-18T06:57:41;3.17;;;1.17;;
73661;SDS011;61956;52.540;13.382;2022-12-18T07:00:13;4.35;;;2.47;;
73661;SDS011;61956;52.540;13.382;2022-12-18T07:02:43;3.80;;;1.45;;
73661;SDS011;61956;52.540;13.382;2022-12-18T07:05:12;9.43;;;4.22;;
73661;SDS011;61956;52.540;13.382;2022-12-18T07:07:41;5.50;;;2.17;;
73661;SDS011;61956;52.540;13.382;2022-12-18T07:10:10;2.88;;;1.10;;
73661;SDS011;61956;52.540;13.382;2022-12-18T07:12:39;4.22;;;2.25;;
73661;SDS011;61956;52.540;13.382;2022-12-18T07:15:09;5.95;;;2.88;;
73661;SDS011;61956;52.540;13.382;2022-12-18T07:17:41;9.23;;;3.05;;
73661;SDS011;61956;52.540;13.382;2022-12-18T07:20:10;7.43;;;1.80;;
73661;SDS011;61956;52.540;13.382;2022-12-18T07:22:39;4.78;;;2.35;;
73661;SDS011;61956;52.540;13.382;2022-12-18T07:25:08;6.05;;;1.75;;
73661;SDS011;61956;52.540;13.382;2022-12-18T07:27:37;4.75;;;3.70;;
73661;SDS011;61956;52.540;13.382;2022-12-18T07:30:07;2.38;;;2.05;;
73661;SDS011;61956;52.540;13.382;2022-12-18T07:32:41;2.40;;;1.80;;
73661;SDS011;61956;52.540;13.382;2022-12-18T07:35:10;8.10;;;2.35;;
73661;SDS011;61956;52.540;13.382;2022-12-18T07:37:39;2.70;;;1.52;;
73661;SDS011;61956;52.540;13.382;2022-12-18T07:40:09;4.70;;;1.65;;
73661;SDS011;61956;52.540;13.382;2022-12-18T07:42:39;4.57;;;2.67;;
73661;SDS011;61956;52.540;13.382;2022-12-18T07:45:09;3.57;;;2.23;;
73661;SDS011;61956;52.540;13.382;2022-12-18T07:47:41;4.50;;;3.53;;
73661;SDS011;61956;52.540;13.382;2022-12-18T07:50:10;8.40;;;2.65;;
73661;SDS011;61956;52.540;13.382;2022-12-18T07:52:39;2.97;;;2.55;;
73661;SDS011;61956;52.540;13.382;2022-12-18T07:55:08;5.68;;;1.90;;
73661;SDS011;61956;52.540;13.382;2022-12-18T07:57:37;2.70;;;1.97;;
73661;SDS011;61956;52.540;13.382;2022-12-18T08:00:07;10.23;;;3.38;;
73661;SDS011;61956;52.540;13.382;2022-12-18T08:02:37;3.78;;;2.42;;
73661;SDS011;61956;52.540;13.382;2022-12-18T08:05:09;2.58;;;1.65;;
73661;SDS011;61956;52.540;13.382;2022-12-18T08:07:39;6.35;;;2.85;;
73661;SDS011;61956;52.540;13.382;2022-12-18T08:10:08;21.77;;;6.40;;
73661;SDS011;61956;52.540;13.382;2022-12-18T08:12:37;14.20;;;4.82;;
73661;SDS011;61956;52.540;13.382;2022-12-18T08:15:07;5.03;;;4.22;;
73661;SDS011;61956;52.540;13.382;2022-12-18T08:17:37;6.30;;;3.53;;
73661;SDS011;61956;52.540;13.382;2022-12-18T08:20:09;6.63;;;4.80;;
73661;SDS011;61956;52.540;13.382;2022-12-18T08:22:40;10.13;;;3.40;;
73661;SDS011;61956;52.540;13.382;2022-12-18T08:25:09;6.22;;;2.88;;
73661;SDS011;61956;52.540;13.382;2022-12-18T08:27:38;14.40;;;3.05;;
73661;SDS011;61956;52.540;13.382;2022-12-18T08:30:08;4.03;;;2.63;;
73661;SDS011;61956;52.540;13.382;2022-12-18T08:32:39;7.15;;;4.40;;
73661;SDS011;61956;52.540;13.382;2022-12-18T08:35:11;7.43;;;4.53;;
73661;SDS011;61956;52.540;13.382;2022-12-18T08:37:40;7.05;;;4.03;;
73661;SDS011;61956;52.540;13.382;2022-12-18T08:40:10;4.88;;;2.78;;
73661;SDS011;61956;52.540;13.382;2022-12-18T08:42:39;3.38;;;2.83;;
73661;SDS011;61956;52.540;13.382;2022-12-18T08:45:21;7.45;;;3.05;;
73661;SDS011;61956;52.540;13.382;2022-12-18T08:47:50;7.97;;;2.17;;
73661;SDS011;61956;52.540;13.382;2022-12-18T08:50:21;7.03;;;5.00;;
73661;SDS011;61956;52.540;13.382;2022-12-18T08:52:50;9.35;;;5.07;;
73661;SDS011;61956;52.540;13.382;2022-12-18T08:55:19;27.02;;;7.55;;
73661;SDS011;61956;52.540;13.382;2022-12-18T08:57:49;8.55;;;2.72;;
73661;SDS011;61956;52.540;13.382;2022-12-18T09:00:18;8.90;;;4.67;;
73661;SDS011;61956;52.540;13.382;2022-12-18T09:02:47;9.07;;;4.13;;
73661;SDS011;61956;52.540;13.382;2022-12-18T09:05:16;7.93;;;4.80;;
73661;SDS011;61956;52.540;13.382;2022-12-18T09:07:48;14.15;;;4.10;;
73661;SDS011;61956;52.540;13.382;2022-12-18T09:10:17;4.20;;;3.08;;
73661;SDS011;61956;52.540;13.382;2022-12-18T09:12:46;5.03;;;3.53;;
73661;SDS011;61956;52.540;13.382;2022-12-18T09:15:15;9.85;;;5.35;;
73661;SDS011;61956;52.540;13.382;2022-12-18T09:17:44;15.43;;;9.50;;
73661;SDS011;61956;52.540;13.382;2022-12-18T09:20:15;9.32;;;4.53;;
73661;SDS011;61956;52.540;13.382;2022-12-18T09:22:45;6.65;;;4.80;;
73661;SDS011;61956;52.540;13.382;2022-12-18T09:25:16;10.93;;;5.43;;
73661;SDS011;61956;52.540;13.382;2022-12-18T09:27:46;17.52;;;6.07;;
73661;SDS011;61956;52.540;13.382;2022-12-18T09:30:16;5.60;;;3.08;;
73661;SDS011;61956;52.540;13.382;2022-12-18T09:32:45;12.35;;;4.47;;
73661;SDS011;61956;52.540;13.382;2022-12-18T09:35:14;5.25;;;3.55;;
73661;SDS011;61956;52.540;13.382;2022-12-18T09:37:43;5.10;;;2.27;;
73661;SDS011;61956;52.540;13.382;2022-12-18T09:40:16;15.90;;;4.35;;
73661;SDS011;61956;52.540;13.382;2022-12-18T09:42:51;22.77;;;3.50;;
73661;SDS011;61956;52.540;13.382;2022-12-18T09:45:25;7.75;;;2.10;;
73661;SDS011;61956;52.540;13.382;2022-12-18T09:47:58;9.02;;;5.60;;
73661;SDS011;61956;52.540;13.382;2022-12-18T09:50:31;14.20;;;5.67;;
73661;SDS011;61956;52.540;13.382;2022-12-18T09:53:06;14.00;;;4.38;;
73661;SDS011;61956;52.540;13.382;2022-12-18T09:55:48;8.55;;;5.30;;
73661;SDS011;61956;52.540;13.382;2022-12-18T09:58:21;13.77;;;7.35;;
73661;SDS011;61956;52.540;13.382;2022-12-18T10:00:58;7.43;;;4.28;;
73661;SDS011;61956;52.540;13.382;2022-12-18T10:03:27;10.10;;;4.83;;
73661;SDS011;61956;52.540;13.382;2022-12-18T10:05:59;17.20;;;4.25;;
73661;SDS011;61956;52.540;13.382;2022-12-18T10:08:37;7.18;;;3.97;;
73661;SDS011;61956;52.540;13.382;2022-12-18T10:11:26;8.93;;;4.03;;
73661;SDS011;61956;52.540;13.382;2022-12-18T10:14:09;8.52;;;3.40;;
73661;SDS011;61956;52.540;13.382;2022-12-18T10:16:53;9.27;;;5.70;;
73661;SDS011;61956;52.540;13.382;2022-12-18T10:19:39;15.40;;;5.93;;
73661;SDS011;61956;52.540;13.382;2022-12-18T10:22:26;40.85;;;19.60;;
73661;SDS011;61956;52.540;13.382;2022-12-18T10:25:15;38.08;;;19.70;;
73661;SDS011;61956;52.540;13.382;2022-12-18T10:27:55;27.30;;;16.38;;
73661;SDS011;61956;52.540;13.382;2022-12-18T10:30:28;39.33;;;16.50;;
73661;SDS011;61956;52.540;13.382;2022-12-18T10:33:00;27.17;;;13.70;;
73661;SDS011;61956;52.540;13.382;2022-12-18T10:35:29;21.27;;;14.02;;
73661;SDS011;61956;52.540;13.382;2022-12-18T10:37:59;25.55;;;9.32;;
73661;SDS011;61956;52.540;13.382;2022-12-18T10:40:33;28.67;;;12.88;;
73661;SDS011;61956;52.540;13.382;2022-12-18T10:43:24;8.33;;;4.33;;
73661;SDS011;61956;52.540;13.382;2022-12-18T10:46:03;12.25;;;4.40;;
73661;SDS011;61956;52.540;13.382;2022-12-18T10:48:51;5.63;;;3.35;;
73661;SDS011;61956;52.540;13.382;2022-12-18T10:51:24;10.15;;;5.15;;
73661;SDS011;61956;52.540;13.382;2022-12-18T10:53:59;11.90;;;7.45;;
73661;SDS011;61956;52.540;13.382;2022-12-18T10:56:32;7.43;;;4.47;;
73661;SDS011;61956;52.540;13.382;2022-12-18T10:59:07;13.98;;;4.18;;
73661;SDS011;61956;52.540;13.382;2022-12-18T11:01:48;14.90;;;3.75;;
73661;SDS011;61956;52.540;13.382;2022-12-18T11:04:20;8.95;;;2.95;;
73661;SDS011;61956;52.540;13.382;2022-12-18T11:06:52;7.47;;;3.30;;
73661;SDS011;61956;52.540;13.382;2022-12-18T11:09:26;7.23;;;2.13;;
73661;SDS011;61956;52.540;13.382;2022-12-18T11:11:57;4.00;;;2.85;;
73661;SDS011;61956;52.540;13.382;2022-12-18T11:14:32;4.50;;;2.75;;
73661;SDS011;61956;52.540;13.382;2022-12-18T11:17:17;5.75;;;2.72;;
73661;SDS011;61956;52.540;13.382;2022-12-18T11:19:52;2.25;;;0.85;;
73661;SDS011;61956;52.540;13.382;2022-12-18T11:22:23;3.13;;;2.13;;
73661;SDS011;61956;52.540;13.382;2022-12-18T11:24:57;12.63;;;5.05;;
73661;SDS011;61956;52.540;13.382;2022-12-18T11:27:29;5.78;;;3.05;;
73661;SDS011;61956;52.540;13.382;2022-12-18T11:30:09;5.80;;;3.35;;
73661;SDS011;61956;52.540;13.382;2022-12-18T11:32:50;2.67;;;1.27;;
73661;SDS011;61956;52.540;13.382;2022-12-18T11:35:33;28.93;;;6.10;;
73661;SDS011;61956;52.540;13.382;2022-12-18T11:38:17;8.27;;;3.47;;
73661;SDS011;61956;52.540;13.382;2022-12-18T11:40:52;8.02;;;3.63;;
73661;SDS011;61956;52.540;13.382;2022-12-18T11:43:32;13.48;;;4.13;;
73661;SDS011;61956;52.540;13.382;2022-12-18T11:46:12;10.65;;;5.38;;
73661;SDS011;61956;52.540;13.382;2022-12-18T11:48:48;7.90;;;3.00;;
73661;SDS011;61956;52.540;13.382;2022-12-18T11:51:26;4.10;;;2.90;;
73661;SDS011;61956;52.540;13.382;2022-12-18T11:54:04;3.08;;;1.58;;
73661;SDS011;61956;52.540;13.382;2022-12-18T11:56:43;15.30;;;2.67;;
73661;SDS011;61956;52.540;13.382;2022-12-18T11:59:21;4.45;;;2.30;;
73661;SDS011;61956;52.540;13.382;2022-12-18T12:02:11;15.30;;;3.33;;
73661;SDS011;61956;52.540;13.382;2022-12-18T12:05:03;6.13;;;3.60;;
73661;SDS011;61956;52.540;13.382;2022-12-18T12:07:56;12.43;;;5.63;;
73661;SDS011;61956;52.540;13.382;2022-12-18T12:10:38;14.80;;;6.97;;
73661;SDS011;61956;52.540;13.382;2022-12-18T12:13:26;16.15;;;7.43;;
73661;SDS011;61956;52.540;13.382;2022-12-18T12:16:14;13.97;;;7.83;;
73661;SDS011;61956;52.540;13.382;2022-12-18T12:18:56;7.50;;;3.33;;
73661;SDS011;61956;52.540;13.382;2022-12-18T12:21:45;9.23;;;4.03;;
73661;SDS011;61956;52.540;13.382;2022-12-18T12:24:30;5.43;;;3.08;;
73661;SDS011;61956;52.540;13.382;2022-12-18T12:27:17;7.18;;;3.13;;
73661;SDS011;61956;52.540;13.382;2022-12-18T12:30:00;9.30;;;4.33;;
73661;SDS011;61956;52.540;13.382;2022-12-18T12:32:50;4.90;;;2.17;;
73661;SDS011;61956;52.540;13.382;2022-12-18T12:35:50;9.52;;;4.43;;
73661;SDS011;61956;52.540;13.382;2022-12-18T12:44:14;6.20;;;1.97;;
73661;SDS011;61956;52.540;13.382;2022-12-18T12:46:47;5.70;;;1.80;;
73661;SDS011;61956;52.540;13.382;2022-12-18T12:49:24;11.82;;;1.88;;
73661;SDS011;61956;52.540;13.382;2022-12-18T12:52:03;9.57;;;3.75;;
73661;SDS011;61956;52.540;13.382;2022-12-18T12:54:39;2.30;;;1.27;;
73661;SDS011;61956;52.540;13.382;2022-12-18T12:57:11;10.30;;;3.60;;
73661;SDS011;61956;52.540;13.382;2022-12-18T12:59:47;6.63;;;3.20;;
73661;SDS011;61956;52.540;13.382;2022-12-18T13:02:30;4.43;;;2.05;;
73661;SDS011;61956;52.540;13.382;2022-12-18T13:05:09;11.93;;;6.80;;
73661;SDS011;61956;52.540;13.382;2022-12-18T13:07:54;10.32;;;4.68;;
73661;SDS011;61956;52.540;13.382;2022-12-18T13:10:32;4.97;;;2.70;;
73661;SDS011;61956;52.540;13.382;2022-12-18T13:13:09;10.77;;;3.70;;
73661;SDS011;61956;52.540;13.382;2022-12-18T13:15:38;9.90;;;4.75;;
73661;SDS011;61956;52.540;13.382;2022-12-18T13:18:13;8.75;;;4.55;;
73661;SDS011;61956;52.540;13.382;2022-12-18T13:20:49;7.00;;;3.35;;
73661;SDS011;61956;52.540;13.382;2022-12-18T13:23:33;12.93;;;6.75;;
73661;SDS011;61956;52.540;13.382;2022-12-18T13:29:02;9.52;;;4.05;;
73661;SDS011;61956;52.540;13.382;2022-12-18T13:34:48;8.15;;;4.03;;
73661;SDS011;61956;52.540;13.382;2022-12-18T13:37:41;5.28;;;2.33;;
73661;SDS011;61956;52.540;13.382;2022-12-18T13:43:30;14.07;;;5.10;;
73661;SDS011;61956;52.540;13.382;2022-12-18T13:46:21;12.43;;;4.78;;
73661;SDS011;61956;52.540;13.382;2022-12-18T13:48:58;4.93;;;3.35;;
73661;SDS011;61956;52.540;13.382;2022-12-18T13:51:32;10.30;;;6.18;;
73661;SDS011;61956;52.540;13.382;2022-12-18T13:54:06;7.47;;;4.70;;
73661;SDS011;61956;52.540;13.382;2022-12-18T13:56:50;13.88;;;4.55;;
73661;SDS011;61956;52.540;13.382;2022-12-18T13:59:20;8.07;;;5.05;;
73661;SDS011;61956;52.540;13.382;2022-12-18T14:01:52;9.98;;;4.35;;
73661;SDS011;61956;52.540;13.382;2022-12-18T14:04:25;15.02;;;4.82;;
73661;SDS011;61956;52.540;13.382;2022-12-18T14:06:57;10.45;;;3.45;;
73661;SDS011;61956;52.540;13.382;2022-12-18T14:09:34;4.82;;;2.83;;
73661;SDS011;61956;52.540;13.382;2022-12-18T14:12:11;6.78;;;2.95;;
73661;SDS011;61956;52.540;13.382;2022-12-18T14:14:58;10.73;;;4.32;;
73661;SDS011;61956;52.540;13.382;2022-12-18T14:17:28;14.55;;;8.52;;
73661;SDS011;61956;52.540;13.382;2022-12-18T14:19:59;6.40;;;4.40;;
73661;SDS011;61956;52.540;13.382;2022-12-18T14:22:29;15.40;;;7.15;;
73661;SDS011;61956;52.540;13.382;2022-12-18T14:25:10;13.90;;;5.10;;
73661;SDS011;61956;52.540;13.382;2022-12-18T14:27:50;8.75;;;4.40;;
73661;SDS011;61956;52.540;13.382;2022-12-18T14:30:25;8.43;;;3.15;;
73661;SDS011;61956;52.540;13.382;2022-12-18T14:33:03;4.85;;;2.15;;
73661;SDS011;61956;52.540;13.382;2022-12-18T14:35:39;4.93;;;1.70;;
73661;SDS011;61956;52.540;13.382;2022-12-18T14:38:19;7.30;;;3.30;;
73661;SDS011;61956;52.540;13.382;2022-12-18T14:41:00;11.35;;;3.60;;
73661;SDS011;61956;52.540;13.382;2022-12-18T14:43:36;3.17;;;1.92;;
73661;SDS011;61956;52.540;13.382;2022-12-18T14:46:24;3.75;;;2.03;;
73661;SDS011;61956;52.540;13.382;2022-12-18T14:48:58;7.95;;;1.85;;
73661;SDS011;61956;52.540;13.382;2022-12-18T14:51:30;11.48;;;4.78;;
73661;SDS011;61956;52.540;13.382;2022-12-18T14:54:02;6.20;;;2.15;;
73661;SDS011;61956;52.540;13.382;2022-12-18T14:56:42;7.95;;;3.38;;
73661;SDS011;61956;52.540;13.382;2022-12-18T14:59:19;6.35;;;3.70;;
73661;SDS011;61956;52.540;13.382;2022-12-18T15:01:55;13.73;;;4.68;;
73661;SDS011;61956;52.540;13.382;2022-12-18T15:04:30;5.93;;;2.67;;
73661;SDS011;61956;52.540;13.382;2022-12-18T15:07:06;2.72;;;1.15;;
73661;SDS011;61956;52.540;13.382;2022-12-18T15:10:00;42.30;;;18.42;;
73661;SDS011;61956;52.540;13.382;2022-12-18T15:12:41;19.00;;;8.15;;
73661;SDS011;61956;52.540;13.382;2022-12-18T15:18:25;9.07;;;3.42;;
73661;SDS011;61956;52.540;13.382;2022-12-18T15:21:06;7.68;;;3.63;;
73661;SDS011;61956;52.540;13.382;2022-12-18T15:23:46;9.63;;;4.25;;
73661;SDS011;61956;52.540;13.382;2022-12-18T15:26:18;6.57;;;3.03;;
73661;SDS011;61956;52.540;13.382;2022-12-18T15:28:50;6.38;;;3.42;;
73661;SDS011;61956;52.540;13.382;2022-12-18T15:31:28;3.13;;;1.60;;